Terminal Aerodrome Forecast
Issued by NWS

Home | Current Version | Previous Version | Text Only | Print | Product List | Glossary On
Versions: 1 2 3 4 5 6 7 8 9 10 11 12 13 14 15 16 17 18 19 20 21 22 23 24 25 26 27 28 29 30
000
FTUS41 KALY 251400 AAB
TAFPSF
TAF AMD
KPSF 251409Z 2514/2612 28015G25KT 6SM -SHSN BR SCT025 OVC035
      TEMPO 2514/2515 28025G37KT 2SM -SHSN BR BKN008 OVC025
     FM251500 30017G27KT P6SM BKN035
     FM251700 31013G23KT P6SM SCT040
     FM252300 31008KT P6SM BKN200
     FM260800 VRB03KT P6SM BKN100 OVC200=

USA.gov is the U.S. government's official web portal to all federal, state and local government web resources and services.